Time;durP1;ratioP1;P1;durP2;ratioP2;P2;SDS_P1;SDS_P2;PMS_P1;PMS_P2;Temp;Humidity;BMP_temperature;BMP_pressure;BME280_temperature;BME280_humidity;BME280_pressure;Samples;Min_cycle;Max_cycle;Signal;HPM_P1;HPM_P2
2022/03/08 00:01:54;;;;;;;14.23;9.63;;;;;0.00;101648.00;;;;10290847;28;20204;-76
2022/03/08 00:06:56;;;;;;;14.40;10.63;;;;;-0.10;101659.00;;;;10290937;28;20335;-76
2022/03/08 00:11:58;;;;;;;14.67;9.57;;;;;-0.30;101663.00;;;;10293735;28;20240;-76
2022/03/08 00:17:01;;;;;;;17.67;9.93;;;;;-0.50;101666.00;;;;10296398;28;20192;-77
2022/03/08 00:22:03;;;;;;;19.00;10.60;;;;;-0.70;101651.00;;;;10292889;28;20192;-76
2022/03/08 00:27:05;;;;;;;16.50;10.50;;;;;-0.80;101651.00;;;;10291775;28;20615;-76
2022/03/08 00:32:09;;;;;;;17.00;9.97;;;;;-0.70;101645.00;;;;10274629;28;20683;-76
2022/03/08 00:37:11;;;;;;;16.43;10.00;;;;;-0.70;101651.00;;;;10281564;28;20676;-76
2022/03/08 00:42:14;;;;;;;18.50;12.13;;;;;-0.80;101643.00;;;;10290766;28;20203;-76
2022/03/08 00:47:16;;;;;;;16.47;10.60;;;;;-0.80;101645.00;;;;10289166;28;20196;-76
2022/03/08 00:52:19;;;;;;;19.70;10.67;;;;;-0.80;101651.00;;;;10290048;28;20278;-76
2022/03/08 00:57:21;;;;;;;17.63;10.20;;;;;-0.80;101639.00;;;;10274176;28;20199;-76
2022/03/08 01:02:23;;;;;;;13.27;9.43;;;;;-0.80;101634.00;;;;10289655;28;20224;-76
2022/03/08 01:07:25;;;;;;;17.33;9.97;;;;;-0.80;101635.00;;;;10291239;28;20271;-76
2022/03/08 01:12:27;;;;;;;13.23;8.63;;;;;-0.90;101633.00;;;;10273815;28;20220;-76
2022/03/08 01:17:29;;;;;;;14.73;10.13;;;;;-1.10;101631.00;;;;10290093;28;20426;-76
2022/03/08 01:22:31;;;;;;;10.73;8.43;;;;;-1.30;101623.00;;;;10274025;28;20250;-76
2022/03/08 01:27:33;;;;;;;13.10;8.20;;;;;-1.40;101621.00;;;;10290192;28;20203;-76
2022/03/08 01:32:35;;;;;;;15.30;8.90;;;;;-1.30;101602.00;;;;10306624;28;20275;-76
2022/03/08 01:37:37;;;;;;;16.37;10.43;;;;;-1.20;101598.00;;;;10308257;28;20245;-76
2022/03/08 01:42:40;;;;;;;12.20;9.13;;;;;-1.10;101614.00;;;;10273450;28;20687;-76
2022/03/08 01:47:42;;;;;;;15.67;9.80;;;;;-1.10;101604.00;;;;10290719;28;20204;-76
2022/03/08 01:52:45;;;;;;;16.57;10.40;;;;;-1.10;101595.00;;;;10289950;28;20227;-76
2022/03/08 01:57:48;;;;;;;14.73;10.60;;;;;-1.20;101580.00;;;;10304693;28;20200;-76
2022/03/08 02:02:50;;;;;;;14.47;10.30;;;;;-1.20;101577.00;;;;10290964;28;20235;-76
2022/03/08 02:07:56;;;;;;;16.10;9.60;;;;;-1.10;101582.00;;;;10297667;28;20200;-76
2022/03/08 02:12:58;;;;;;;13.07;8.83;;;;;-1.20;101573.00;;;;10313887;28;20222;-76
2022/03/08 02:18:01;;;;;;;12.50;9.87;;;;;-1.20;101550.00;;;;10296916;28;20259;-76
2022/03/08 02:23:03;;;;;;;12.77;8.43;;;;;-1.40;101556.00;;;;10281377;28;20227;-76
2022/03/08 02:28:06;;;;;;;13.73;9.23;;;;;-1.60;101564.00;;;;10296072;28;20303;-76
2022/03/08 02:33:08;;;;;;;14.20;9.00;;;;;-1.80;101552.00;;;;10280402;28;20227;-76
2022/03/08 02:38:10;;;;;;;11.67;8.63;;;;;-1.90;101558.00;;;;10285864;28;20228;-76
2022/03/08 02:43:12;;;;;;;14.97;9.43;;;;;-2.00;101551.00;;;;10276741;28;20199;-76
2022/03/08 02:48:15;;;;;;;13.83;8.43;;;;;-2.10;101547.00;;;;10341606;28;20255;-76
2022/03/08 02:53:17;;;;;;;13.23;8.77;;;;;-2.20;101548.00;;;;10291008;28;20227;-76
2022/03/08 02:58:19;;;;;;;15.37;8.83;;;;;-2.20;101543.00;;;;10317262;28;20283;-76
2022/03/08 03:03:21;;;;;;;14.67;8.63;;;;;-2.30;101536.00;;;;10295249;28;20575;-76
2022/03/08 03:08:23;;;;;;;13.83;9.43;;;;;-2.40;101542.00;;;;10332824;28;20311;-76
2022/03/08 03:13:25;;;;;;;15.53;8.73;;;;;-2.50;101540.00;;;;10310869;28;20220;-76
2022/03/08 03:18:27;;;;;;;16.10;9.13;;;;;-2.70;101528.00;;;;10311746;28;20239;-76
2022/03/08 03:23:29;;;;;;;15.70;9.33;;;;;-2.80;101516.00;;;;10291851;28;20310;-76
2022/03/08 03:28:31;;;;;;;14.07;9.03;;;;;-2.90;101506.00;;;;10277332;28;20903;-76
2022/03/08 03:33:32;;;;;;;20.27;10.30;;;;;-3.00;101494.00;;;;10293320;28;20278;-76
2022/03/08 03:38:34;;;;;;;16.50;10.60;;;;;-3.00;101491.00;;;;10309954;28;20218;-76
2022/03/08 03:43:37;;;;;;;17.80;10.97;;;;;-3.00;101483.00;;;;10294740;28;20196;-76
2022/03/08 03:48:38;;;;;;;16.63;10.37;;;;;-3.00;101492.00;;;;10294612;28;20200;-76
2022/03/08 03:53:41;;;;;;;13.73;9.03;;;;;-3.10;101486.00;;;;10277350;28;20220;-76
2022/03/08 03:58:43;;;;;;;14.70;9.23;;;;;-3.10;101476.00;;;;10292871;28;20202;-76
2022/03/08 04:03:44;;;;;;;20.83;9.80;;;;;-2.90;101470.00;;;;10297188;28;20207;-76
2022/03/08 04:08:46;;;;;;;14.20;8.37;;;;;-2.90;101480.00;;;;10318756;28;20200;-76
2022/03/08 04:13:48;;;;;;;14.50;9.23;;;;;-2.90;101483.00;;;;10309130;28;20235;-76
2022/03/08 04:18:50;;;;;;;13.27;8.63;;;;;-3.10;101471.00;;;;10283150;28;20247;-76
2022/03/08 04:23:52;;;;;;;14.67;9.57;;;;;-3.20;101468.00;;;;10261225;28;20820;-76
2022/03/08 04:28:54;;;;;;;16.80;10.90;;;;;-3.10;101467.00;;;;10292121;28;20208;-76
2022/03/08 04:33:56;;;;;;;17.17;10.70;;;;;-3.20;101466.00;;;;10288636;28;20223;-76
2022/03/08 04:38:58;;;;;;;15.83;10.10;;;;;-3.20;101461.00;;;;10325384;28;20315;-76
2022/03/08 04:44:00;;;;;;;20.77;10.87;;;;;-3.20;101466.00;;;;10278956;28;20748;-77
2022/03/08 04:49:02;;;;;;;17.60;10.77;;;;;-3.20;101473.00;;;;10279439;28;20204;-77
2022/03/08 04:54:04;;;;;;;17.20;11.20;;;;;-3.20;101469.00;;;;10274542;28;20216;-77
2022/03/08 04:59:06;;;;;;;18.33;11.40;;;;;-3.20;101459.00;;;;10291970;28;20234;-77
2022/03/08 05:04:08;;;;;;;19.03;12.03;;;;;-3.20;101459.00;;;;10276981;28;20196;-77
2022/03/08 05:09:10;;;;;;;19.37;10.97;;;;;-3.20;101468.00;;;;10275368;28;20230;-77
2022/03/08 05:14:12;;;;;;;18.47;10.97;;;;;-3.30;101471.00;;;;10290404;28;20220;-77
2022/03/08 05:19:14;;;;;;;18.30;10.37;;;;;-3.40;101459.00;;;;10275318;28;20412;-77
2022/03/08 05:24:16;;;;;;;17.03;10.70;;;;;-3.50;101462.00;;;;10292953;28;20200;-77
2022/03/08 05:29:18;;;;;;;18.07;11.37;;;;;-3.40;101446.00;;;;10279505;28;20211;-77
2022/03/08 05:34:20;;;;;;;17.90;10.80;;;;;-3.20;101447.00;;;;10281035;28;20219;-77
2022/03/08 05:39:22;;;;;;;16.73;10.47;;;;;-3.10;101451.00;;;;10295422;28;20227;-76
2022/03/08 05:44:24;;;;;;;17.17;11.60;;;;;-3.10;101437.00;;;;10284213;28;20718;-77
2022/03/08 05:49:26;;;;;;;20.90;10.57;;;;;-3.10;101425.00;;;;10284133;28;20255;-77
2022/03/08 05:54:28;;;;;;;17.23;10.80;;;;;-3.10;101436.00;;;;10262582;28;20646;-77
2022/03/08 05:59:30;;;;;;;18.40;10.07;;;;;-3.10;101444.00;;;;10298513;28;20278;-77
2022/03/08 06:04:32;;;;;;;19.87;10.57;;;;;-3.10;101441.00;;;;10325046;28;20200;-77
2022/03/08 06:09:34;;;;;;;15.73;9.97;;;;;-3.30;101440.00;;;;10303772;28;20254;-77
2022/03/08 06:14:38;;;;;;;19.30;10.60;;;;;-3.40;101449.00;;;;10298374;28;20247;-77
2022/03/08 06:19:40;;;;;;;18.50;11.10;;;;;-3.50;101442.00;;;;10280236;28;20248;-77
2022/03/08 06:24:42;;;;;;;19.90;10.57;;;;;-3.40;101435.00;;;;10299898;28;20196;-77
2022/03/08 06:29:44;;;;;;;17.07;10.33;;;;;-3.30;101441.00;;;;10284092;28;20204;-77
2022/03/08 06:34:46;;;;;;;16.93;11.07;;;;;-3.30;101442.00;;;;10294778;28;20247;-76
2022/03/08 06:39:49;;;;;;;15.97;10.23;;;;;-3.20;101443.00;;;;10321886;28;20246;-77
2022/03/08 06:44:51;;;;;;;18.93;11.57;;;;;-3.00;101444.00;;;;10318747;28;20204;-77
2022/03/08 06:49:53;;;;;;;21.13;11.73;;;;;-2.90;101442.00;;;;10344293;28;20208;-76
2022/03/08 06:54:55;;;;;;;18.93;12.60;;;;;-2.70;101431.00;;;;10287213;28;20212;-77
2022/03/08 06:59:57;;;;;;;23.43;12.77;;;;;-2.40;101434.00;;;;10291446;28;20382;-77
2022/03/08 07:04:58;;;;;;;23.77;15.17;;;;;-2.00;101445.00;;;;10280486;28;20212;-77
2022/03/08 07:10:00;;;;;;;23.67;14.40;;;;;-1.50;101442.00;;;;10313940;28;20231;-77
2022/03/08 07:15:03;;;;;;;21.67;13.27;;;;;-1.10;101432.00;;;;10296322;28;20211;-78
2022/03/08 07:20:07;;;;;;;22.63;13.27;;;;;-0.60;101438.00;;;;10296781;28;20770;-78
2022/03/08 07:25:10;;;;;;;17.23;11.00;;;;;0.00;101442.00;;;;10318746;28;20200;-78
2022/03/08 07:30:13;;;;;;;18.23;10.40;;;;;0.60;101443.00;;;;10299823;28;20208;-78
2022/03/08 07:35:15;;;;;;;17.47;11.20;;;;;1.30;101450.00;;;;10275571;28;20316;-78
2022/03/08 07:40:17;;;;;;;16.17;10.40;;;;;1.70;101459.00;;;;10266340;28;20220;-78
2022/03/08 07:45:19;;;;;;;14.67;10.53;;;;;2.10;101467.00;;;;10294661;28;20227;-78
2022/03/08 07:50:22;;;;;;;15.90;9.90;;;;;2.30;101468.00;;;;10308796;28;20287;-78
2022/03/08 07:55:24;;;;;;;15.97;11.67;;;;;2.50;101463.00;;;;10292896;28;20235;-78
2022/03/08 08:00:27;;;;;;;17.13;10.70;;;;;2.60;101470.00;;;;10305945;28;20208;-78
2022/03/08 08:05:30;;;;;;;16.83;10.83;;;;;2.80;101468.00;;;;10261327;28;20219;-78
2022/03/08 08:10:33;;;;;;;18.40;12.20;;;;;3.00;101468.00;;;;10280529;28;20327;-77
2022/03/08 08:15:37;;;;;;;13.93;10.93;;;;;3.40;101470.00;;;;10301863;28;20321;-77
2022/03/08 08:20:45;;;;;;;14.20;10.07;;;;;3.90;101473.00;;;;10304959;28;20287;-77
2022/03/08 08:25:47;;;;;;;13.57;10.07;;;;;4.40;101481.00;;;;10287787;28;20239;-77
2022/03/08 08:30:49;;;;;;;12.53;9.33;;;;;4.80;101481.00;;;;10290026;28;20942;-77
2022/03/08 08:35:51;;;;;;;15.00;10.10;;;;;5.10;101470.00;;;;10285365;28;20227;-77
2022/03/08 08:40:53;;;;;;;14.90;10.00;;;;;5.20;101466.00;;;;10294168;28;20804;-76
2022/03/08 08:45:55;;;;;;;16.13;9.90;;;;;5.50;101463.00;;;;10288697;28;20212;-76
2022/03/08 08:50:57;;;;;;;15.33;9.90;;;;;5.80;101462.00;;;;10302136;28;20212;-77
2022/03/08 08:56:00;;;;;;;14.50;9.70;;;;;6.10;101459.00;;;;10305835;28;20224;-76
2022/03/08 09:01:03;;;;;;;10.80;8.67;;;;;6.40;101444.00;;;;10291446;28;20230;-76
2022/03/08 09:06:06;;;;;;;14.80;9.20;;;;;6.80;101447.00;;;;10274799;28;20207;-76
2022/03/08 09:11:10;;;;;;;13.37;9.97;;;;;7.10;101443.00;;;;10280243;28;20200;-76
2022/03/08 09:16:14;;;;;;;13.30;9.53;;;;;7.30;101450.00;;;;10287656;28;20216;-76
2022/03/08 09:21:16;;;;;;;7.20;6.50;;;;;7.70;101448.00;;;;10305916;28;20192;-76
2022/03/08 09:26:18;;;;;;;7.57;6.70;;;;;8.00;101441.00;;;;10271245;28;20258;-76
2022/03/08 09:31:20;;;;;;;6.63;6.00;;;;;8.10;101433.00;;;;10279014;28;20236;-76
2022/03/08 09:36:22;;;;;;;6.90;6.20;;;;;8.30;101427.00;;;;10297717;28;20283;-76
2022/03/08 09:41:25;;;;;;;8.57;6.47;;;;;8.80;101425.00;;;;10329587;28;20234;-76
2022/03/08 09:46:27;;;;;;;8.23;6.60;;;;;9.20;101442.00;;;;10262669;28;20211;-76
2022/03/08 09:51:29;;;;;;;9.17;6.07;;;;;9.40;101444.00;;;;10297736;28;20238;-76
2022/03/08 09:56:31;;;;;;;10.33;6.30;;;;;9.70;101435.00;;;;10295414;28;20224;-76
2022/03/08 10:01:34;;;;;;;7.33;6.43;;;;;10.00;101437.00;;;;10294125;28;20544;-74
2022/03/08 10:06:39;;;;;;;7.03;6.13;;;;;10.50;101429.00;;;;10311064;28;20671;-76
2022/03/08 10:11:42;;;;;;;7.77;6.30;;;;;10.70;101429.00;;;;10293182;28;20200;-74
2022/03/08 10:16:58;;;;;;;9.50;6.43;;;;;11.00;101423.00;;;;10290867;28;20843;-76
2022/03/08 10:22:01;;;;;;;7.43;5.93;;;;;10.90;101412.00;;;;10283335;28;20232;-74
2022/03/08 10:27:09;;;;;;;8.23;6.20;;;;;11.00;101429.00;;;;10276433;28;20208;-74
2022/03/08 10:32:17;;;;;;;6.63;5.93;;;;;11.40;101427.00;;;;10278828;28;20757;-74
2022/03/08 10:37:24;;;;;;;8.00;5.60;;;;;11.80;101416.00;;;;10293444;28;20220;-74
2022/03/08 10:42:29;;;;;;;6.83;5.70;;;;;12.00;101423.00;;;;10316961;28;20192;-74
2022/03/08 10:47:58;;;;;;;7.63;6.67;;;;;12.00;101408.00;;;;10297853;28;20754;-74
2022/03/08 10:53:02;;;;;;;11.13;5.80;;;;;12.20;101404.00;;;;10293352;28;20212;-74
2022/03/08 10:58:12;;;;;;;7.07;5.73;;;;;12.50;101403.00;;;;10285775;28;20196;-74
2022/03/08 11:03:18;;;;;;;12.50;7.07;;;;;12.70;101398.00;;;;10296779;28;20208;-74
2022/03/08 11:08:21;;;;;;;8.57;5.30;;;;;12.80;101396.00;;;;10294306;28;20663;-74
2022/03/08 11:13:23;;;;;;;7.40;5.93;;;;;12.90;101381.00;;;;10313902;28;20231;-74
2022/03/08 11:18:27;;;;;;;6.83;6.10;;;;;12.70;101373.00;;;;10305886;28;20212;-74
2022/03/08 11:23:33;;;;;;;9.37;5.90;;;;;13.00;101384.00;;;;10310487;28;20232;-74
2022/03/08 11:28:46;;;;;;;6.10;5.50;;;;;13.30;101376.00;;;;10285183;28;20303;-74
2022/03/08 11:34:01;;;;;;;5.53;4.90;;;;;13.30;101376.00;;;;10324360;28;20251;-74
2022/03/08 11:39:18;;;;;;;7.07;5.47;;;;;13.50;101368.00;;;;10296526;28;20322;-75
2022/03/08 11:44:27;;;;;;;10.13;4.67;;;;;13.60;101365.00;;;;10311894;28;20203;-74
2022/03/08 11:49:48;;;;;;;8.47;5.67;;;;;13.60;101367.00;;;;10288592;28;20216;-75
2022/03/08 11:55:06;;;;;;;6.07;5.43;;;;;13.90;101349.00;;;;10273473;28;20220;-75
2022/03/08 12:00:34;;;;;;;7.93;5.40;;;;;13.80;101342.00;;;;10287983;28;20215;-75
2022/03/08 12:05:42;;;;;;;6.87;5.60;;;;;14.00;101345.00;;;;10285886;28;20196;-75
2022/03/08 12:10:45;;;;;;;5.90;5.30;;;;;14.10;101342.00;;;;10283401;28;20311;-76
2022/03/08 12:16:09;;;;;;;5.70;4.70;;;;;14.30;101342.00;;;;10304871;28;20291;-75
2022/03/08 12:21:15;;;;;;;5.20;4.70;;;;;14.30;101338.00;;;;10293732;28;20235;-75
2022/03/08 12:26:29;;;;;;;6.80;5.30;;;;;14.70;101338.00;;;;10289521;28;20201;-75
2022/03/08 12:31:58;;;;;;;6.63;5.07;;;;;14.70;101327.00;;;;10323371;28;20200;-75
2022/03/08 12:37:08;;;;;;;6.93;5.57;;;;;14.70;101326.00;;;;10288613;28;20754;-75
2022/03/08 12:42:39;;;;;;;8.27;4.93;;;;;14.50;101324.00;;;;10309572;28;20220;-75
2022/03/08 12:48:07;;;;;;;5.90;5.30;;;;;14.70;101321.00;;;;10288882;28;20334;-75
2022/03/08 12:53:23;;;;;;;6.63;5.00;;;;;14.80;101316.00;;;;10276229;28;20218;-75
2022/03/08 12:58:33;;;;;;;5.03;4.53;;;;;15.00;101305.00;;;;10301034;28;20432;-75
2022/03/08 13:03:40;;;;;;;7.37;5.30;;;;;15.00;101305.00;;;;10281938;28;20208;-75
2022/03/08 13:08:43;;;;;;;5.53;5.03;;;;;15.10;101301.00;;;;10287563;28;20229;-75
2022/03/08 13:13:46;;;;;;;6.13;5.17;;;;;15.10;101300.00;;;;10287092;28;20224;-76
2022/03/08 13:18:48;;;;;;;6.13;4.73;;;;;15.00;101298.00;;;;10300611;28;20200;-75
2022/03/08 13:23:50;;;;;;;5.87;4.67;;;;;15.20;101288.00;;;;10287577;28;20231;-76
2022/03/08 13:28:52;;;;;;;6.33;4.93;;;;;15.60;101291.00;;;;10286659;28;20200;-76
2022/03/08 13:33:55;;;;;;;8.93;5.97;;;;;15.50;101289.00;;;;10302616;28;20867;-76
2022/03/08 13:38:58;;;;;;;6.10;4.80;;;;;15.40;101288.00;;;;10305571;28;20224;-76
2022/03/08 13:44:04;;;;;;;5.87;5.27;;;;;16.00;101276.00;;;;10279020;28;20208;-76
2022/03/08 13:49:09;;;;;;;6.27;5.67;;;;;17.20;101271.00;;;;10282406;28;20200;-76
2022/03/08 13:54:11;;;;;;;5.87;5.27;;;;;18.80;101265.00;;;;10310777;28;20280;-75
2022/03/08 13:59:27;;;;;;;6.80;5.67;;;;;17.30;101252.00;;;;10321751;28;20254;-75
2022/03/08 14:04:29;;;;;;;6.97;5.63;;;;;19.70;101213.00;;;;10277015;28;20202;-76
2022/03/08 14:09:31;;;;;;;8.63;5.97;;;;;20.50;101223.00;;;;10293241;28;20232;-76
2022/03/08 14:14:33;;;;;;;7.87;5.50;;;;;20.00;101220.00;;;;10311446;28;20220;-75
2022/03/08 14:19:41;;;;;;;7.57;5.60;;;;;19.20;101234.00;;;;10292616;28;20283;-75
2022/03/08 14:25:02;;;;;;;5.80;5.17;;;;;18.50;101228.00;;;;10294621;28;20655;-75
2022/03/08 14:30:06;;;;;;;5.53;5.03;;;;;19.30;101195.00;;;;10293525;28;20204;-75
2022/03/08 14:35:10;;;;;;;6.47;5.40;;;;;20.20;101189.00;;;;10292800;28;20216;-75
2022/03/08 14:40:35;;;;;;;6.63;5.27;;;;;19.70;101186.00;;;;10308319;28;20220;-75
2022/03/08 14:45:37;;;;;;;6.37;5.40;;;;;20.30;101167.00;;;;10293548;28;20671;-75
2022/03/08 14:50:59;;;;;;;6.03;5.40;;;;;21.90;101163.00;;;;10263899;28;20207;-75
2022/03/08 14:56:02;;;;;;;6.23;5.63;;;;;21.80;101184.00;;;;10306781;28;20212;-75
2022/03/08 15:01:05;;;;;;;6.20;5.17;;;;;19.70;101169.00;;;;10291682;28;20591;-75
2022/03/08 15:06:08;;;;;;;6.03;5.43;;;;;20.30;101200.00;;;;10292564;28;20228;-76
2022/03/08 15:11:11;;;;;;;5.70;5.00;;;;;18.70;101210.00;;;;10298251;28;20212;-75
2022/03/08 15:16:13;;;;;;;5.80;5.30;;;;;17.00;101216.00;;;;10290172;28;20445;-75
2022/03/08 15:21:17;;;;;;;6.67;5.10;;;;;18.00;101159.00;;;;10303662;28;20204;-75
2022/03/08 15:26:26;;;;;;;8.67;5.97;;;;;20.60;101169.00;;;;10271119;28;20203;-76
2022/03/08 15:31:28;;;;;;;6.80;4.83;;;;;20.50;101185.00;;;;10317197;28;20208;-76
2022/03/08 15:36:31;;;;;;;7.00;5.13;;;;;19.70;101207.00;;;;10302130;28;20295;-75
2022/03/08 15:41:35;;;;;;;8.50;5.07;;;;;16.80;101253.00;;;;10286513;28;20251;-75
2022/03/08 15:46:44;;;;;;;7.83;5.60;;;;;15.30;101247.00;;;;10300247;28;20205;-75
2022/03/08 15:51:46;;;;;;;5.63;4.90;;;;;14.00;101248.00;;;;10303963;28;20211;-75
2022/03/08 15:56:48;;;;;;;6.90;5.57;;;;;13.40;101240.00;;;;10288533;28;20216;-75
2022/03/08 16:01:50;;;;;;;7.17;4.67;;;;;12.60;101253.00;;;;10304205;28;20278;-75
2022/03/08 16:06:52;;;;;;;4.93;4.47;;;;;12.20;101244.00;;;;10308935;28;20310;-75
2022/03/08 16:11:54;;;;;;;7.73;4.17;;;;;12.00;101250.00;;;;10270343;28;20262;-75
2022/03/08 16:16:58;;;;;;;5.53;4.70;;;;;11.70;101250.00;;;;10271406;28;20298;-75
2022/03/08 16:22:00;;;;;;;5.17;4.60;;;;;11.40;101256.00;;;;10272390;28;20196;-76
2022/03/08 16:27:03;;;;;;;5.53;4.80;;;;;11.20;101258.00;;;;10285590;28;20643;-75
2022/03/08 16:32:05;;;;;;;9.23;4.87;;;;;11.00;101257.00;;;;10270957;28;20196;-75
2022/03/08 16:37:07;;;;;;;7.40;5.07;;;;;10.80;101268.00;;;;10304353;28;20219;-76
2022/03/08 16:42:14;;;;;;;6.60;4.20;;;;;10.70;101269.00;;;;10286714;28;20196;-75
2022/03/08 16:47:16;;;;;;;4.70;4.27;;;;;10.60;101274.00;;;;10272463;28;20912;-75
2022/03/08 16:52:19;;;;;;;7.57;5.53;;;;;10.40;101278.00;;;;10269853;28;20223;-75
2022/03/08 16:57:22;;;;;;;8.60;5.73;;;;;10.20;101274.00;;;;10285331;28;20248;-75
2022/03/08 17:02:27;;;;;;;9.53;6.37;;;;;10.00;101274.00;;;;10269325;28;20231;-76
2022/03/08 17:07:29;;;;;;;7.77;5.33;;;;;9.80;101279.00;;;;10297095;28;20232;-75
2022/03/08 17:12:52;;;;;;;11.37;5.30;;;;;9.50;101287.00;;;;10283394;28;20200;-75
2022/03/08 17:17:54;;;;;;;6.17;4.90;;;;;9.30;101283.00;;;;10286369;28;20204;-75
2022/03/08 17:22:56;;;;;;;6.83;4.60;;;;;9.00;101301.00;;;;10297497;28;20227;-75
2022/03/08 17:27:58;;;;;;;6.90;5.03;;;;;8.60;101308.00;;;;10281501;28;20212;-75
2022/03/08 17:33:00;;;;;;;6.70;4.97;;;;;8.20;101305.00;;;;10284328;28;20711;-76
2022/03/08 17:38:03;;;;;;;9.80;5.27;;;;;7.80;101316.00;;;;10288253;28;20230;-76
2022/03/08 17:43:05;;;;;;;11.37;6.03;;;;;7.60;101323.00;;;;10301904;28;20681;-76
2022/03/08 17:48:08;;;;;;;11.13;8.27;;;;;7.30;101321.00;;;;10304270;28;20185;-76
2022/03/08 17:53:11;;;;;;;16.40;9.90;;;;;7.10;101324.00;;;;10274535;28;20240;-76
2022/03/08 17:58:14;;;;;;;20.83;11.37;;;;;6.90;101325.00;;;;10311308;28;20197;-76
2022/03/08 18:03:16;;;;;;;25.80;13.27;;;;;6.70;101346.00;;;;10290846;28;20208;-76
2022/03/08 18:08:19;;;;;;;25.87;13.37;;;;;6.40;101343.00;;;;10304766;28;20242;-76
2022/03/08 18:13:21;;;;;;;19.13;11.57;;;;;6.30;101350.00;;;;10312195;28;20212;-76
2022/03/08 18:18:23;;;;;;;24.50;14.70;;;;;6.20;101341.00;;;;10289486;28;20208;-76
2022/03/08 18:23:25;;;;;;;12.90;9.07;;;;;6.10;101351.00;;;;10292370;28;20266;-76
2022/03/08 18:28:37;;;;;;;13.07;8.70;;;;;6.20;101348.00;;;;10328799;28;20204;-76
2022/03/08 18:33:46;;;;;;;18.27;8.80;;;;;6.30;101349.00;;;;10304445;28;20247;-76
2022/03/08 18:38:54;;;;;;;9.90;7.90;;;;;6.20;101346.00;;;;10275697;28;20758;-76
2022/03/08 18:43:56;;;;;;;15.00;9.03;;;;;6.20;101361.00;;;;10289125;28;20210;-76
2022/03/08 18:48:58;;;;;;;19.33;10.07;;;;;6.10;101359.00;;;;10287029;28;20532;-76
2022/03/08 18:54:00;;;;;;;18.50;11.30;;;;;6.10;101370.00;;;;10306933;28;20235;-76
2022/03/08 18:59:18;;;;;;;19.97;11.20;;;;;6.00;101364.00;;;;10278340;28;20188;-77
2022/03/08 19:04:23;;;;;;;18.13;11.97;;;;;6.00;101375.00;;;;10308629;28;20203;-76
2022/03/08 19:09:25;;;;;;;18.77;10.30;;;;;5.90;101366.00;;;;10303996;28;20204;-76
2022/03/08 19:14:27;;;;;;;16.97;9.93;;;;;5.70;101368.00;;;;10269502;28;20215;-76
2022/03/08 19:19:29;;;;;;;14.67;8.93;;;;;5.60;101364.00;;;;10297416;28;20861;-76
2022/03/08 19:24:32;;;;;;;14.50;9.00;;;;;5.40;101370.00;;;;10294012;28;20262;-76
2022/03/08 19:29:34;;;;;;;11.67;8.60;;;;;5.20;101371.00;;;;10301058;28;20405;-76
2022/03/08 19:34:36;;;;;;;14.37;8.80;;;;;5.10;101370.00;;;;10288107;28;20251;-77
2022/03/08 19:39:38;;;;;;;13.40;8.80;;;;;5.10;101391.00;;;;10292943;28;20234;-76
2022/03/08 19:44:48;;;;;;;14.70;8.70;;;;;5.00;101386.00;;;;10286672;28;20232;-77
2022/03/08 19:49:51;;;;;;;15.23;9.43;;;;;4.90;101385.00;;;;10299532;28;20207;-76
2022/03/08 19:54:53;;;;;;;17.07;9.33;;;;;4.70;101385.00;;;;10287412;28;20223;-77
2022/03/08 19:59:56;;;;;;;15.53;9.43;;;;;4.70;101394.00;;;;10280279;28;20679;-77
2022/03/08 20:04:58;;;;;;;13.50;8.70;;;;;4.50;101404.00;;;;10274740;28;20204;-78
2022/03/08 20:10:00;;;;;;;18.87;11.20;;;;;4.50;101401.00;;;;10300468;28;20204;-76
2022/03/08 20:15:08;;;;;;;22.70;14.10;;;;;4.30;101411.00;;;;10312828;28;20682;-76
2022/03/08 20:20:10;;;;;;;21.83;13.27;;;;;3.90;101403.00;;;;10297324;28;20215;-76
2022/03/08 20:25:14;;;;;;;18.00;11.07;;;;;3.60;101408.00;;;;10290465;28;20632;-76
2022/03/08 20:30:16;;;;;;;13.27;8.30;;;;;3.70;101406.00;;;;10284243;28;20212;-76
2022/03/08 20:35:18;;;;;;;10.90;8.13;;;;;4.00;101414.00;;;;10306694;28;20632;-76
2022/03/08 20:40:21;;;;;;;13.73;8.80;;;;;4.10;101411.00;;;;10300157;28;20291;-77
2022/03/08 20:45:26;;;;;;;13.17;8.73;;;;;4.00;101408.00;;;;10293060;28;20741;-77
2022/03/08 20:50:28;;;;;;;10.83;8.00;;;;;3.80;101413.00;;;;10297935;28;20637;-77
2022/03/08 20:55:31;;;;;;;10.40;8.07;;;;;3.80;101411.00;;;;10295020;28;20720;-77
2022/03/08 21:00:33;;;;;;;12.70;8.93;;;;;3.80;101420.00;;;;10287898;28;20208;-77
2022/03/08 21:05:36;;;;;;;13.40;8.87;;;;;3.90;101418.00;;;;10311111;28;20204;-77
2022/03/08 21:10:43;;;;;;;14.97;10.03;;;;;3.70;101418.00;;;;10302599;28;20563;-77
2022/03/08 21:15:45;;;;;;;15.40;10.70;;;;;3.40;101429.00;;;;10284864;28;20228;-77
2022/03/08 21:20:47;;;;;;;13.00;9.70;;;;;2.90;101431.00;;;;10300295;28;20216;-77
2022/03/08 21:25:49;;;;;;;16.77;10.07;;;;;2.50;101440.00;;;;10303117;28;20209;-77
2022/03/08 21:30:51;;;;;;;12.03;8.87;;;;;2.20;101438.00;;;;10289674;28;20200;-77
2022/03/08 21:35:53;;;;;;;22.10;10.33;;;;;1.90;101430.00;;;;10306087;28;20216;-77
2022/03/08 21:40:55;;;;;;;17.37;8.80;;;;;1.70;101439.00;;;;10279355;28;20274;-77
2022/03/08 21:45:57;;;;;;;14.70;9.40;;;;;1.50;101432.00;;;;10288202;28;20201;-77
2022/03/08 21:51:00;;;;;;;13.03;9.30;;;;;1.30;101432.00;;;;10291645;28;20200;-77
2022/03/08 21:56:02;;;;;;;14.20;9.83;;;;;1.30;101426.00;;;;10300852;28;20546;-76
2022/03/08 22:01:09;;;;;;;25.30;16.77;;;;;1.30;101430.00;;;;10327105;28;20243;-76
2022/03/08 22:06:11;;;;;;;17.50;10.87;;;;;1.40;101432.00;;;;10329824;28;20200;-76
2022/03/08 22:11:16;;;;;;;13.47;9.60;;;;;1.70;101433.00;;;;10268213;28;20239;-76
2022/03/08 22:16:18;;;;;;;13.57;9.10;;;;;2.10;101441.00;;;;10299504;28;20254;-77
2022/03/08 22:21:20;;;;;;;15.03;9.57;;;;;2.20;101446.00;;;;10311774;28;20600;-77
2022/03/08 22:26:23;;;;;;;16.30;10.43;;;;;1.90;101448.00;;;;10308811;28;20204;-77
2022/03/08 22:31:26;;;;;;;17.97;11.33;;;;;1.70;101442.00;;;;10316635;28;20192;-77
2022/03/08 22:36:32;;;;;;;15.70;10.77;;;;;1.50;101445.00;;;;10314187;28;20219;-77
2022/03/08 22:41:34;;;;;;;17.40;10.70;;;;;1.30;101444.00;;;;10313571;28;20224;-76
2022/03/08 22:46:36;;;;;;;19.47;10.13;;;;;1.20;101447.00;;;;10316143;28;20203;-78
2022/03/08 22:51:50;;;;;;;16.23;10.50;;;;;1.10;101437.00;;;;10289268;28;20209;-76
2022/03/08 22:56:54;;;;;;;17.67;11.97;;;;;1.00;101448.00;;;;10284371;28;20224;-76
2022/03/08 23:02:16;;;;;;;22.53;13.47;;;;;0.90;101446.00;;;;10318296;28;20204;-77
2022/03/08 23:07:18;;;;;;;26.70;15.53;;;;;0.70;101455.00;;;;10326283;28;20232;-76
2022/03/08 23:12:20;;;;;;;24.73;15.13;;;;;0.70;101464.00;;;;10268429;28;20193;-76
2022/03/08 23:17:22;;;;;;;22.30;14.13;;;;;0.60;101460.00;;;;10274059;28;20216;-76
2022/03/08 23:22:24;;;;;;;24.93;13.97;;;;;0.40;101464.00;;;;10310781;28;20197;-76
2022/03/08 23:27:26;;;;;;;21.67;12.50;;;;;0.30;101469.00;;;;10309434;28;20800;-77
2022/03/08 23:32:28;;;;;;;20.13;12.40;;;;;0.30;101475.00;;;;10297665;28;20192;-76
2022/03/08 23:37:30;;;;;;;17.17;12.10;;;;;0.40;101486.00;;;;10255589;28;20224;-76
2022/03/08 23:42:32;;;;;;;18.63;10.87;;;;;0.50;101475.00;;;;10306309;28;20204;-76
2022/03/08 23:47:34;;;;;;;16.67;10.80;;;;;0.50;101477.00;;;;10312028;28;20207;-76
2022/03/08 23:52:36;;;;;;;16.17;10.17;;;;;0.60;101481.00;;;;10313345;28;20235;-76
2022/03/08 23:57:39;;;;;;;19.50;11.23;;;;;0.80;101471.00;;;;10294890;28;20304;-76
